Skagway, AK

4:07 AM AKST on December 21, 2014 (GMT -0900)
Juneau International | Change Station
CLOSE
Current Station
Airport
Location: Juneau,
Elevation: 23 ft
Nearby Weather Stations

Elev 23 ft 58.35 °N, 134.58 °W | Updated 14 minutes ago

Light Rain
Light Rain Mist
35 °F
Feels Like 35 °F
N
0
Wind Variable Wind from North

Today
High -- | Low -- °F
--% Chance of Precip.
Yesterday
High -- | Low -- °F
Precip. -- in
8:58 AM 3:00 PM
Waning Crescent, 0% visible
Pressure 29.26 in
Visibility 5.0 miles
Clouds Few 600 ft
Scattered Clouds 1000 ft
Overcast 2800 ft
Dew Point 34 °F
Humidity 96%
Rainfall 0.04 in
Snow Depth Not available.
UV 0 out of 12
Pollen Not available.
Air Quality Not available.
Flu Activity Not available.
METAR PAJN 211253Z 00000KT 5SM -RA BR FEW006 SCT010 OVC028 02/01 A2926 RMK AO2 SLP908 P0004 T00170011

More Conditions Fewer Conditions

Pressure 29.26 in
Visibility 5.0 miles
Clouds Few 600 ft
Scattered Clouds 1000 ft
Overcast 2800 ft
Dew Point 34 °F
Humidity 96%
Rainfall 0.04 in
Snow Depth Not available.
UV 0 out of 12
Pollen Not available.
Air Quality Not available.
Flu Activity Not available.
METAR PAJN 211253Z 00000KT 5SM -RA BR FEW006 SCT010 OVC028 02/01 A2926 RMK AO2 SLP908 P0004 T00170011

More Conditions Fewer Conditions

10-Day Weather Forecast

Almanac

Astronomy

Dec. 21, 2014 Rise Set
Actual Time
Civil Twilight
Nautical Twilight
Astronomical Twilight
Moon
Length of Visible Light
Length of Day
Tomorrow will be .
, % of the Moon is Illuminated

Today's Extremes

State Highs State Lows

Community

WunderPhotos

Upload Photos

1,779,373 photos uploaded!

WunderBlogs® & News

Nearby

Air Quality

  Air Quality AQ Index Pollutant
Not available.

Snow Depth

Station Depth Elevation

Earthquake Activity

City Distance Mag. Time & Date
Minimum magnitude displayed is 2.5.

Coastal Water Temperatures

Place Temperature

Nearby Weather Stations